Time;durP1;ratioP1;P1;durP2;ratioP2;P2;SDS_P1;SDS_P2;PMS_P1;PMS_P2;Temp;Humidity;BMP_temperature;BMP_pressure;BME280_temperature;BME280_humidity;BME280_pressure;Samples;Min_cycle;Max_cycle;Signal;HPM_P1;HPM_P2
2023/09/16 00:01:43;;;;;;;9.90;2.20;;;;;;;11.39;78.88;100845.88;109771;1284;22203;-78
2023/09/16 00:04:14;;;;;;;10.70;2.30;;;;;;;11.36;78.97;100839.49;109744;1284;22347;-79
2023/09/16 00:06:46;;;;;;;12.50;2.70;;;;;;;11.34;79.28;100839.83;109758;1272;22173;-79
2023/09/16 00:09:16;;;;;;;8.40;1.70;;;;;;;11.32;79.37;100838.82;109730;1284;22642;-78
2023/09/16 00:11:47;;;;;;;6.60;1.90;;;;;;;11.30;79.27;100835.77;109758;1276;22143;-78
2023/09/16 00:14:19;;;;;;;8.80;1.80;;;;;;;11.30;79.34;100832.59;109751;1283;22360;-80
2023/09/16 00:16:51;;;;;;;6.90;1.70;;;;;;;11.27;79.64;100833.42;109755;1284;22212;-78
2023/09/16 00:19:23;;;;;;;6.90;2.20;;;;;;;11.24;79.75;100828.92;109763;1284;22137;-79
2023/09/16 00:21:54;;;;;;;10.30;1.80;;;;;;;11.20;79.70;100828.98;109763;1284;23051;-79
2023/09/16 00:24:25;;;;;;;13.10;2.50;;;;;;;11.17;79.94;100827.83;109767;1284;22940;-80
2023/09/16 00:26:55;;;;;;;9.50;1.90;;;;;;;11.14;80.06;100826.38;109770;1284;22329;-79
2023/09/16 00:29:26;;;;;;;10.10;1.70;;;;;;;11.10;80.09;100825.67;109771;1284;22291;-78
2023/09/16 00:31:57;;;;;;;10.40;2.10;;;;;;;11.07;80.06;100823.76;109773;1273;22200;-78
2023/09/16 00:34:28;;;;;;;10.40;2.10;;;;;;;11.05;80.16;100824.66;109756;1284;22435;-79
2023/09/16 00:36:59;;;;;;;7.50;1.70;;;;;;;11.04;80.13;100819.84;109761;1280;22389;-82
2023/09/16 00:39:29;;;;;;;8.90;1.60;;;;;;;11.02;80.34;100812.48;109770;1284;22191;-79
2023/09/16 00:42:00;;;;;;;7.60;1.70;;;;;;;11.00;80.33;100815.84;109768;1284;22941;-78
2023/09/16 00:44:30;;;;;;;10.10;2.10;;;;;;;10.99;80.47;100814.05;109757;1277;22172;-79
2023/09/16 00:47:02;;;;;;;9.20;1.60;;;;;;;10.97;80.72;100812.80;109734;1284;22901;-78
2023/09/16 00:49:33;;;;;;;7.90;1.80;;;;;;;10.95;80.93;100813.21;109776;1284;22225;-78
2023/09/16 00:52:04;;;;;;;8.80;1.90;;;;;;;10.92;80.98;100814.61;109782;1284;22323;-78
2023/09/16 00:54:35;;;;;;;10.30;1.80;;;;;;;10.90;81.14;100810.55;109745;1284;22144;-78
2023/09/16 00:57:08;;;;;;;11.00;2.80;;;;;;;10.89;81.08;100817.06;109752;1284;22192;-79
2023/09/16 00:59:40;;;;;;;9.10;2.10;;;;;;;10.88;81.20;100815.98;109788;1277;23197;-78
2023/09/16 01:02:11;;;;;;;13.20;2.70;;;;;;;10.86;81.35;100812.58;109770;1284;22425;-79
2023/09/16 01:04:43;;;;;;;12.20;2.80;;;;;;;10.83;81.39;100813.90;109777;1280;22187;-78
2023/09/16 01:07:14;;;;;;;12.50;2.70;;;;;;;10.80;81.52;100820.09;109775;1281;22490;-78
2023/09/16 01:09:46;;;;;;;12.90;2.80;;;;;;;10.78;81.66;100823.87;109748;1280;22139;-78
2023/09/16 01:12:16;;;;;;;10.30;2.80;;;;;;;10.76;81.63;100827.77;109758;1280;22355;-78
2023/09/16 01:14:47;;;;;;;12.20;2.60;;;;;;;10.75;81.69;100824.19;109738;1284;23027;-78
2023/09/16 01:17:26;;;;;;;14.10;3.30;;;;;;;10.73;81.70;100823.85;109781;1283;22161;-76
2023/09/16 01:20:04;;;;;;;12.10;2.70;;;;;;;10.71;81.75;100826.42;108185;1277;23375;-79
2023/09/16 01:22:35;;;;;;;9.60;2.30;;;;;;;10.69;81.87;100825.80;108651;1284;22524;-79
2023/09/16 01:25:08;;;;;;;11.20;2.80;;;;;;;10.66;81.94;100824.58;107866;1277;22788;-78
2023/09/16 01:27:39;;;;;;;12.90;2.40;;;;;;;10.64;82.02;100816.38;109769;1277;22240;-78
2023/09/16 01:30:12;;;;;;;11.60;2.80;;;;;;;10.63;82.17;100818.27;109767;1280;22170;-78
2023/09/16 01:32:58;;;;;;;9.40;2.10;;;;;;;10.61;82.29;100816.34;109752;1277;22284;-79
2023/09/16 01:35:35;;;;;;;13.30;2.90;;;;;;;10.59;82.25;100811.06;109768;1277;22262;-78
2023/09/16 01:38:08;;;;;;;7.80;1.90;;;;;;;10.58;82.28;100808.55;109778;1280;22370;-78
2023/09/16 01:40:40;;;;;;;11.00;1.80;;;;;;;10.58;82.53;100804.96;109760;1277;22322;-78
2023/09/16 01:43:11;;;;;;;12.60;2.10;;;;;;;10.61;82.84;100806.77;109760;1280;22346;-78
2023/09/16 01:45:44;;;;;;;8.90;2.20;;;;;;;10.64;83.02;100803.77;109739;1283;22234;-78
2023/09/16 01:48:16;;;;;;;7.90;1.60;;;;;;;10.65;83.20;100810.67;109780;1280;22357;-77
2023/09/16 01:50:47;;;;;;;8.40;1.90;;;;;;;10.65;83.28;100812.95;109797;1284;22208;-78
2023/09/16 01:53:18;;;;;;;7.60;2.10;;;;;;;10.65;83.44;100806.60;109727;1284;22203;-79
2023/09/16 01:55:49;;;;;;;10.90;2.60;;;;;;;10.62;83.32;100808.70;109743;1277;22149;-79
2023/09/16 01:58:20;;;;;;;6.60;1.80;;;;;;;10.59;83.31;100813.70;109718;1277;22186;-78
2023/09/16 02:00:51;;;;;;;8.10;2.10;;;;;;;10.56;83.27;100812.20;109786;1284;22200;-79
2023/09/16 02:03:22;;;;;;;7.80;1.80;;;;;;;10.53;83.24;100805.89;109752;1282;22184;-79
2023/09/16 02:05:52;;;;;;;10.30;2.00;;;;;;;10.51;83.35;100802.41;109778;1280;22160;-78
2023/09/16 02:08:23;;;;;;;8.60;2.00;;;;;;;10.49;83.41;100804.48;109815;1281;22357;-78
2023/09/16 02:10:54;;;;;;;9.80;1.70;;;;;;;10.47;83.63;100799.15;109785;1284;22418;-79
2023/09/16 02:13:24;;;;;;;10.10;2.20;;;;;;;10.44;83.55;100802.79;109751;1284;22205;-78
2023/09/16 02:15:55;;;;;;;7.60;1.40;;;;;;;10.41;83.64;100804.11;109756;1276;22338;-78
2023/09/16 02:18:26;;;;;;;7.80;1.90;;;;;;;10.39;83.67;100803.90;109776;1274;22264;-81
2023/09/16 02:20:56;;;;;;;7.20;2.00;;;;;;;10.36;83.66;100802.05;109761;1281;23144;-78
2023/09/16 02:23:27;;;;;;;7.30;1.80;;;;;;;10.33;83.70;100798.88;109749;1284;22212;-78
2023/09/16 02:26:02;;;;;;;8.80;2.00;;;;;;;10.30;83.73;100801.25;109766;1284;22190;-80
2023/09/16 02:28:32;;;;;;;9.10;2.70;;;;;;;10.28;83.87;100803.02;109755;1279;22455;-78
2023/09/16 02:31:03;;;;;;;9.80;1.80;;;;;;;10.26;83.80;100800.48;109780;1284;22526;-77
2023/09/16 02:33:33;;;;;;;8.60;1.60;;;;;;;10.24;83.84;100791.86;109733;1282;22437;-78
2023/09/16 02:36:04;;;;;;;9.60;2.70;;;;;;;10.23;83.90;100790.30;109762;1280;22240;-78
2023/09/16 02:38:35;;;;;;;11.00;2.70;;;;;;;10.23;83.94;100784.63;109768;1277;22315;-78
2023/09/16 02:41:06;;;;;;;8.90;2.00;;;;;;;10.25;84.22;100782.17;109766;1284;22153;-79
2023/09/16 02:43:37;;;;;;;7.90;2.20;;;;;;;10.25;84.55;100784.64;109770;1284;22397;-78
2023/09/16 02:46:08;;;;;;;11.50;3.20;;;;;;;10.27;84.63;100784.85;109770;1284;22207;-78
2023/09/16 02:48:38;;;;;;;10.50;2.30;;;;;;;10.28;84.84;100785.31;109755;1277;22942;-78
2023/09/16 02:51:09;;;;;;;12.10;2.30;;;;;;;10.27;84.77;100780.63;109760;1283;22364;-78
2023/09/16 02:53:40;;;;;;;10.60;1.90;;;;;;;10.27;84.98;100775.05;109771;1280;22169;-78
2023/09/16 02:56:11;;;;;;;11.50;2.40;;;;;;;10.26;85.10;100775.02;109765;1284;22400;-78
2023/09/16 02:58:41;;;;;;;10.30;2.30;;;;;;;10.25;85.07;100777.94;109737;1284;22204;-78
2023/09/16 03:01:12;;;;;;;14.10;2.80;;;;;;;10.24;85.01;100777.59;109768;1283;22404;-78
2023/09/16 03:03:43;;;;;;;9.90;2.00;;;;;;;10.22;85.17;100781.02;109748;1284;23104;-78
2023/09/16 03:06:14;;;;;;;10.80;2.60;;;;;;;10.20;85.10;100780.38;109758;1284;22300;-78
2023/09/16 03:08:45;;;;;;;9.60;1.70;;;;;;;10.19;85.20;100776.04;109766;1280;22216;-80
2023/09/16 03:11:15;;;;;;;12.40;3.00;;;;;;;10.19;85.08;100775.27;109781;1284;22434;-80
2023/09/16 03:13:46;;;;;;;12.90;2.50;;;;;;;10.17;84.97;100771.98;109749;1280;22221;-80
2023/09/16 03:16:19;;;;;;;10.20;2.20;;;;;;;10.15;85.01;100773.49;109775;1284;22322;-79
2023/09/16 03:18:51;;;;;;;8.50;2.10;;;;;;;10.13;85.30;100773.67;109753;1279;22241;-79
2023/09/16 03:21:25;;;;;;;10.50;1.90;;;;;;;10.11;85.17;100776.30;109771;1277;22316;-79
2023/09/16 03:23:56;;;;;;;11.40;1.70;;;;;;;10.09;85.22;100773.17;107594;1277;22666;-78
2023/09/16 03:26:27;;;;;;;11.30;2.60;;;;;;;10.09;85.29;100770.14;106591;1280;22552;-80
2023/09/16 03:28:57;;;;;;;9.40;2.10;;;;;;;10.09;85.51;100760.13;106603;1277;22556;-77
2023/09/16 03:31:28;;;;;;;9.70;2.50;;;;;;;10.08;85.57;100757.98;106712;1278;27394;-77
2023/09/16 03:33:59;;;;;;;10.40;2.30;;;;;;;10.07;85.60;100759.07;106697;1278;22553;-77
2023/09/16 03:36:30;;;;;;;10.90;2.50;;;;;;;10.06;85.66;100758.66;106740;1277;25258;-78
2023/09/16 03:39:00;;;;;;;9.90;2.50;;;;;;;10.04;85.97;100759.04;106706;1278;25277;-77
2023/09/16 03:41:31;;;;;;;13.80;2.90;;;;;;;10.04;85.92;100752.93;106626;1277;22543;-78
2023/09/16 03:44:02;;;;;;;10.20;2.40;;;;;;;10.03;86.08;100754.70;106725;1274;22691;-77
2023/09/16 03:46:33;;;;;;;11.60;2.50;;;;;;;10.05;86.37;100757.64;106592;1277;24277;-77
2023/09/16 03:49:03;;;;;;;11.90;2.80;;;;;;;10.07;86.65;100753.65;106659;1280;22553;-78
2023/09/16 03:51:37;;;;;;;13.30;2.90;;;;;;;10.09;86.71;100754.30;106714;1274;22550;-78
2023/09/16 03:54:08;;;;;;;9.60;2.40;;;;;;;10.10;86.96;100751.48;106671;1277;27677;-78
2023/09/16 03:56:39;;;;;;;11.50;2.50;;;;;;;10.13;87.09;100754.86;106743;1279;22558;-77
2023/09/16 03:59:10;;;;;;;9.90;2.60;;;;;;;10.16;87.17;100753.41;106706;1277;22653;-79
2023/09/16 04:01:40;;;;;;;13.00;2.70;;;;;;;10.18;87.25;100746.33;106685;1279;24240;-77
2023/09/16 04:04:11;;;;;;;10.40;2.50;;;;;;;10.21;87.32;100752.54;106549;1276;22912;-79
2023/09/16 04:06:42;;;;;;;11.50;3.20;;;;;;;10.23;87.37;100753.96;106592;1285;22540;-77
2023/09/16 04:09:12;;;;;;;9.90;2.70;;;;;;;10.23;87.50;100751.78;106631;1284;22642;-77
2023/09/16 04:11:43;;;;;;;10.40;2.70;;;;;;;10.25;87.53;100751.95;106771;1280;24198;-78
2023/09/16 04:14:14;;;;;;;12.80;3.00;;;;;;;10.26;87.62;100749.60;106696;1278;25463;-80
2023/09/16 04:16:47;;;;;;;12.50;2.90;;;;;;;10.27;87.70;100750.23;106730;1281;24205;-76
2023/09/16 04:19:18;;;;;;;12.20;3.20;;;;;;;10.28;87.81;100751.95;106708;1280;22549;-77
2023/09/16 04:21:49;;;;;;;10.10;2.70;;;;;;;10.29;87.61;100749.85;106661;1284;22559;-76
2023/09/16 04:24:21;;;;;;;11.70;2.60;;;;;;;10.30;87.70;100746.94;106792;1273;22542;-76
2023/09/16 04:26:52;;;;;;;10.40;2.60;;;;;;;10.31;87.78;100751.11;106814;1280;22648;-77
2023/09/16 04:29:23;;;;;;;9.10;1.80;;;;;;;10.31;87.89;100752.39;106656;1280;22540;-77
2023/09/16 04:31:53;;;;;;;12.70;3.00;;;;;;;10.31;87.88;100752.95;106674;1277;22537;-77
2023/09/16 04:34:25;;;;;;;11.90;3.10;;;;;;;10.32;88.01;100754.74;106612;1278;23521;-78
2023/09/16 04:36:56;;;;;;;10.40;2.30;;;;;;;10.34;88.11;100757.23;106723;1280;23333;-77
2023/09/16 04:39:27;;;;;;;13.30;2.80;;;;;;;10.35;88.14;100756.39;106800;1280;23728;-76
2023/09/16 04:41:59;;;;;;;9.20;2.90;;;;;;;10.37;88.23;100758.53;106853;1278;24383;-77
2023/09/16 04:44:29;;;;;;;9.00;2.10;;;;;;;10.39;88.44;100751.02;106747;1280;22785;-77
2023/09/16 04:47:07;;;;;;;10.80;2.30;;;;;;;10.41;88.52;100750.74;106763;1280;22573;-77
2023/09/16 04:49:38;;;;;;;12.00;2.50;;;;;;;10.44;88.48;100749.04;106797;1278;25023;-77
2023/09/16 04:52:09;;;;;;;10.40;3.00;;;;;;;10.46;88.71;100748.45;106732;1276;26870;-78
2023/09/16 04:54:40;;;;;;;10.50;2.40;;;;;;;10.49;88.70;100752.33;106660;1277;25354;-78
2023/09/16 04:57:13;;;;;;;10.20;2.60;;;;;;;10.51;88.73;100756.39;106627;1274;22538;-78
2023/09/16 04:59:45;;;;;;;14.00;2.80;;;;;;;10.53;88.74;100755.67;109755;1279;22256;-78
2023/09/16 05:02:15;;;;;;;10.70;2.70;;;;;;;10.55;89.00;100755.80;107077;1277;23316;-77
2023/09/16 05:04:46;;;;;;;14.10;2.70;;;;;;;10.57;88.98;100758.24;108349;1285;23539;-81
2023/09/16 05:07:17;;;;;;;11.90;2.20;;;;;;;10.61;89.10;100757.92;108540;1279;22614;-81
2023/09/16 05:09:47;;;;;;;14.40;2.40;;;;;;;10.65;89.20;100752.19;107143;1277;22553;-77
2023/09/16 05:12:18;;;;;;;12.80;2.80;;;;;;;10.69;89.40;100756.86;106500;1277;22674;-77
2023/09/16 05:14:49;;;;;;;9.60;2.40;;;;;;;10.73;89.60;100756.36;106575;1282;24484;-79
2023/09/16 05:17:20;;;;;;;14.40;3.00;;;;;;;10.79;89.81;100757.84;106600;1278;22529;-76
2023/09/16 05:19:50;;;;;;;10.50;2.70;;;;;;;10.84;90.18;100756.31;106790;1282;22560;-78
2023/09/16 05:22:21;;;;;;;11.30;2.40;;;;;;;10.91;89.98;100758.47;106861;1280;24812;-82
2023/09/16 05:24:52;;;;;;;11.60;2.70;;;;;;;10.97;90.12;100754.95;106795;1283;22655;-78
2023/09/16 05:27:23;;;;;;;10.50;2.40;;;;;;;11.03;90.10;100758.78;106717;1278;22562;-80
2023/09/16 05:29:56;;;;;;;12.70;2.40;;;;;;;11.07;90.15;100756.76;106760;1280;22587;-78
2023/09/16 05:32:27;;;;;;;12.70;2.60;;;;;;;11.14;90.29;100758.34;106747;1277;24357;-79
2023/09/16 05:34:58;;;;;;;10.30;2.40;;;;;;;11.21;90.26;100761.52;106822;1280;24265;-78
2023/09/16 05:37:29;;;;;;;13.10;2.60;;;;;;;11.27;90.28;100760.48;106607;1277;26534;-78
2023/09/16 05:40:00;;;;;;;9.40;2.60;;;;;;;11.31;90.41;100758.00;106798;1279;22563;-78
2023/09/16 05:42:30;;;;;;;11.20;2.80;;;;;;;11.38;90.39;100756.23;106882;1278;23052;-78
2023/09/16 05:45:03;;;;;;;12.50;2.50;;;;;;;11.43;90.40;100758.18;106762;1278;22592;-81
2023/09/16 05:47:34;;;;;;;13.40;2.30;;;;;;;11.47;90.37;100754.41;106615;1280;22592;-78
2023/09/16 05:50:06;;;;;;;10.10;2.80;;;;;;;11.50;90.68;100751.13;106759;1278;25370;-80
2023/09/16 05:52:36;;;;;;;10.40;2.20;;;;;;;11.56;90.77;100754.36;109672;1283;22197;-79
2023/09/16 05:55:08;;;;;;;12.10;2.50;;;;;;;11.61;90.79;100757.08;109662;1280;22152;-78
2023/09/16 05:57:39;;;;;;;14.50;2.80;;;;;;;11.67;90.80;100757.42;109667;1283;22397;-80
2023/09/16 06:00:11;;;;;;;14.90;2.40;;;;;;;11.74;91.03;100759.02;109768;1277;23128;-78
2023/09/16 06:02:42;;;;;;;11.10;2.80;;;;;;;11.80;90.78;100754.84;109691;1278;22415;-78
2023/09/16 06:05:13;;;;;;;11.20;2.40;;;;;;;11.87;90.82;100753.97;109726;1276;23029;-80
2023/09/16 06:07:44;;;;;;;11.00;3.10;;;;;;;11.93;90.87;100755.64;109753;1283;23039;-79
2023/09/16 06:10:15;;;;;;;10.70;2.00;;;;;;;12.00;90.97;100753.70;109743;1284;24788;-80
2023/09/16 06:12:46;;;;;;;11.90;2.70;;;;;;;12.07;90.90;100752.38;109772;1284;22165;-80
2023/09/16 06:15:17;;;;;;;10.90;3.00;;;;;;;12.14;90.84;100750.18;109723;1277;22190;-79
2023/09/16 06:17:47;;;;;;;9.60;2.30;;;;;;;12.21;90.85;100754.39;109731;1282;22386;-78
2023/09/16 06:20:18;;;;;;;10.80;2.00;;;;;;;12.27;90.83;100754.87;109797;1284;22180;-77
2023/09/16 06:22:49;;;;;;;9.80;1.70;;;;;;;12.35;90.83;100757.77;109747;1280;22269;-79
2023/09/16 06:25:20;;;;;;;9.20;2.10;;;;;;;12.41;90.87;100755.25;109669;1277;23363;-79
2023/09/16 06:27:50;;;;;;;12.10;2.40;;;;;;;12.49;90.79;100749.90;109727;1282;22358;-79
2023/09/16 06:30:21;;;;;;;14.70;2.20;;;;;;;12.55;90.82;100750.59;109759;1279;22355;-79
2023/09/16 06:32:52;;;;;;;11.50;2.50;;;;;;;12.62;90.69;100745.13;109751;1284;23328;-78
2023/09/16 06:35:23;;;;;;;14.70;3.10;;;;;;;12.69;91.01;100743.31;109710;1282;22268;-78
2023/09/16 06:37:54;;;;;;;10.30;2.10;;;;;;;12.76;90.99;100739.23;109775;1276;22194;-79
2023/09/16 06:40:24;;;;;;;8.30;2.20;;;;;;;12.83;90.71;100741.88;109750;1277;22165;-78
2023/09/16 06:42:55;;;;;;;11.40;2.40;;;;;;;12.89;90.49;100738.73;109733;1284;22433;-78
2023/09/16 06:45:26;;;;;;;12.90;2.50;;;;;;;12.96;90.48;100732.54;109646;1277;22187;-80
2023/09/16 06:47:59;;;;;;;8.20;2.00;;;;;;;13.02;90.66;100733.46;109783;1284;22329;-81
2023/09/16 06:50:29;;;;;;;11.20;2.40;;;;;;;13.12;90.88;100737.12;109772;1284;22254;-79
2023/09/16 06:53:00;;;;;;;10.20;1.90;;;;;;;13.21;90.61;100734.27;109519;1284;23093;-79
2023/09/16 06:55:31;;;;;;;14.80;2.10;;;;;;;13.30;90.69;100732.01;109692;1276;22275;-79
2023/09/16 06:58:04;;;;;;;11.10;2.50;;;;;;;13.40;90.68;100737.21;109728;1284;23167;-79
2023/09/16 07:00:36;;;;;;;10.90;1.80;;;;;;;13.51;90.99;100741.88;109748;1284;23026;-79
2023/09/16 07:03:08;;;;;;;10.90;2.10;;;;;;;13.65;91.03;100744.11;109709;1284;22343;-80
2023/09/16 07:05:38;;;;;;;14.60;2.50;;;;;;;13.80;90.84;100747.23;109709;1283;22291;-79
2023/09/16 07:08:09;;;;;;;11.20;2.20;;;;;;;13.92;90.43;100750.52;109729;1283;22506;-80
2023/09/16 07:10:40;;;;;;;10.90;2.10;;;;;;;14.04;90.40;100752.77;109767;1282;22233;-79
2023/09/16 07:13:10;;;;;;;7.20;1.70;;;;;;;14.15;90.22;100751.42;109702;1284;22345;-78
2023/09/16 07:15:41;;;;;;;10.00;2.30;;;;;;;14.26;89.97;100754.98;109720;1284;22270;-83
2023/09/16 07:18:13;;;;;;;8.70;2.10;;;;;;;14.34;89.17;100753.73;109750;1284;22422;-79
2023/09/16 07:20:44;;;;;;;12.40;1.80;;;;;;;14.40;89.10;100748.45;109801;1284;22239;-79
2023/09/16 07:23:14;;;;;;;8.90;1.90;;;;;;;14.46;88.79;100750.14;109725;1283;22328;-80
2023/09/16 07:25:56;;;;;;;11.00;2.40;;;;;;;14.53;88.65;100751.60;108506;1277;22637;-82
2023/09/16 07:28:28;;;;;;;9.80;2.30;;;;;;;14.59;88.53;100747.73;107731;1283;22624;-82
2023/09/16 07:30:59;;;;;;;8.20;1.50;;;;;;;14.67;88.57;100750.23;107147;1277;22544;-81
2023/09/16 07:33:50;;;;;;;7.80;1.90;;;;;;;14.77;88.56;100750.98;107816;1284;22539;-84
2023/09/16 07:36:21;;;;;;;9.10;1.80;;;;;;;14.87;88.28;100752.66;107879;1280;25482;-81
2023/09/16 07:38:52;;;;;;;10.70;2.10;;;;;;;14.94;87.84;100749.89;107924;1283;25551;-82
2023/09/16 07:41:25;;;;;;;10.50;1.60;;;;;;;14.98;87.46;100747.63;107930;1284;22550;-83
2023/09/16 07:43:57;;;;;;;11.00;1.90;;;;;;;15.05;87.69;100745.73;107828;1266;22557;-83
2023/09/16 07:46:27;;;;;;;10.00;2.00;;;;;;;15.13;87.66;100747.19;107960;1270;22568;-82
2023/09/16 07:48:59;;;;;;;8.50;1.90;;;;;;;15.21;87.35;100744.64;107029;1282;22547;-81
2023/09/16 07:51:30;;;;;;;9.40;2.00;;;;;;;15.26;87.11;100745.82;107051;1283;24015;-80
2023/09/16 07:54:02;;;;;;;10.80;2.20;;;;;;;15.32;87.12;100741.41;106976;1284;22552;-80
2023/09/16 07:56:33;;;;;;;11.70;2.40;;;;;;;15.43;86.99;100742.63;107634;1283;22531;-82
2023/09/16 07:59:04;;;;;;;9.50;2.10;;;;;;;15.51;86.74;100735.08;106837;1282;22546;-78
2023/09/16 08:01:35;;;;;;;7.30;1.60;;;;;;;15.60;86.82;100729.66;106726;1280;24527;-82
2023/09/16 08:04:05;;;;;;;8.90;2.00;;;;;;;15.69;86.84;100728.50;106782;1284;22836;-79
2023/09/16 08:06:36;;;;;;;9.90;2.20;;;;;;;15.81;86.78;100728.67;106919;1284;25257;-78
2023/09/16 08:09:07;;;;;;;12.60;2.80;;;;;;;15.88;85.95;100731.98;106799;1283;22557;-80
2023/09/16 08:11:38;;;;;;;13.40;2.10;;;;;;;15.91;85.42;100725.43;106827;1276;22558;-79
2023/09/16 08:14:09;;;;;;;9.00;1.70;;;;;;;15.95;85.72;100724.70;106841;1278;25619;-77
2023/09/16 08:16:40;;;;;;;14.60;2.10;;;;;;;16.00;85.31;100728.86;106812;1277;22555;-77
2023/09/16 08:19:12;;;;;;;8.40;1.70;;;;;;;16.01;84.94;100724.37;106835;1284;22560;-77
2023/09/16 08:21:42;;;;;;;7.80;1.80;;;;;;;16.06;85.02;100722.70;106857;1284;22548;-78
2023/09/16 08:24:13;;;;;;;11.40;2.00;;;;;;;16.15;85.12;100720.16;106986;1277;25495;-77
2023/09/16 08:26:44;;;;;;;9.80;2.10;;;;;;;16.24;84.90;100718.21;106919;1282;25474;-78
2023/09/16 08:29:14;;;;;;;11.80;2.20;;;;;;;16.33;84.50;100717.57;106801;1283;22562;-77
2023/09/16 08:31:45;;;;;;;8.90;2.20;;;;;;;16.37;84.09;100718.25;106750;1273;22579;-77
2023/09/16 08:34:15;;;;;;;9.00;2.00;;;;;;;16.42;84.09;100715.81;106644;1284;25502;-77
2023/09/16 08:36:46;;;;;;;11.90;1.90;;;;;;;16.47;84.06;100716.29;106643;1284;23140;-77
2023/09/16 08:39:17;;;;;;;10.30;1.90;;;;;;;16.56;83.94;100713.36;106680;1276;22534;-77
2023/09/16 08:41:56;;;;;;;9.10;2.30;;;;;;;16.62;83.52;100713.02;106846;1283;22657;-78
2023/09/16 08:44:29;;;;;;;11.10;3.40;;;;;;;16.71;83.41;100706.58;106764;1284;24288;-78
2023/09/16 08:47:05;;;;;;;8.70;2.00;;;;;;;16.78;83.25;100704.89;106828;1284;25341;-78
2023/09/16 08:49:41;;;;;;;8.90;2.40;;;;;;;16.85;83.00;100704.38;106747;1284;24397;-78
2023/09/16 08:52:14;;;;;;;8.50;1.60;;;;;;;16.94;83.19;100708.70;106765;1284;23176;-77
2023/09/16 08:54:46;;;;;;;8.50;1.70;;;;;;;17.07;83.23;100702.60;106733;1277;22560;-78
2023/09/16 08:57:18;;;;;;;8.20;1.70;;;;;;;17.18;82.98;100705.21;106797;1277;22537;-77
2023/09/16 08:59:52;;;;;;;8.10;1.50;;;;;;;17.32;82.66;100704.64;106654;1284;25086;-77
2023/09/16 09:02:26;;;;;;;8.70;2.00;;;;;;;17.41;82.19;100702.98;106678;1284;22656;-77
2023/09/16 09:04:57;;;;;;;14.30;1.80;;;;;;;17.46;82.00;100699.27;106957;1284;22557;-79
2023/09/16 09:07:29;;;;;;;10.00;2.20;;;;;;;17.51;81.59;100702.48;107468;1260;23348;-78
2023/09/16 09:10:00;;;;;;;12.90;2.50;;;;;;;17.57;81.32;100700.84;107546;1284;22590;-75
2023/09/16 09:12:33;;;;;;;8.80;1.80;;;;;;;17.65;81.26;100699.16;106945;1280;23332;-77
2023/09/16 09:15:05;;;;;;;8.20;1.80;;;;;;;17.78;81.35;100690.97;109683;1277;22372;-77
2023/09/16 09:17:39;;;;;;;9.90;2.20;;;;;;;17.90;81.13;100686.56;109673;1284;22996;-80
2023/09/16 09:20:14;;;;;;;5.30;1.40;;;;;;;18.02;80.78;100683.18;109715;1280;22194;-76
2023/09/16 09:22:45;;;;;;;16.40;1.80;;;;;;;18.09;80.26;100683.15;109743;1284;22246;-77
2023/09/16 09:25:15;;;;;;;10.40;2.70;;;;;;;18.15;80.09;100684.15;109719;1284;22506;-78
2023/09/16 09:27:46;;;;;;;7.70;1.60;;;;;;;18.21;79.83;100682.32;109731;1273;23673;-78
2023/09/16 09:30:21;;;;;;;11.30;2.00;;;;;;;18.31;79.87;100679.13;109687;1280;22339;-77
2023/09/16 09:32:51;;;;;;;9.50;2.00;;;;;;;18.41;79.64;100673.13;109784;1283;22416;-79
2023/09/16 09:35:24;;;;;;;6.80;1.80;;;;;;;18.52;79.30;100673.54;109761;1283;22189;-79
2023/09/16 09:37:55;;;;;;;9.60;1.60;;;;;;;18.59;78.91;100677.39;109731;1284;22153;-78
2023/09/16 09:40:28;;;;;;;5.90;1.50;;;;;;;18.68;78.59;100675.79;109731;1283;23081;-78
2023/09/16 09:43:00;;;;;;;8.80;1.90;;;;;;;18.76;78.56;100678.61;109757;1283;22454;-78
2023/09/16 09:45:37;;;;;;;6.80;1.50;;;;;;;18.85;78.34;100677.45;109710;1283;23099;-78
2023/09/16 09:48:08;;;;;;;7.70;1.50;;;;;;;18.94;78.11;100681.56;109745;1283;23048;-82
2023/09/16 09:50:39;;;;;;;9.40;1.60;;;;;;;19.01;77.81;100678.52;109715;1284;23271;-78
2023/09/16 09:53:10;;;;;;;11.60;2.30;;;;;;;19.11;77.70;100677.10;109750;1273;22225;-78
2023/09/16 09:55:43;;;;;;;12.00;2.20;;;;;;;19.22;77.26;100676.43;109724;1283;22314;-82
2023/09/16 09:58:14;;;;;;;9.70;1.80;;;;;;;19.28;76.49;100670.85;109750;1283;22310;-78
2023/09/16 10:00:49;;;;;;;6.50;1.50;;;;;;;19.35;76.24;100667.38;109767;1283;22867;-78
2023/09/16 10:03:22;;;;;;;6.10;1.30;;;;;;;19.40;75.72;100663.67;109750;1280;22280;-79
2023/09/16 10:05:53;;;;;;;8.20;1.40;;;;;;;19.46;75.42;100662.94;109718;1281;22200;-79
2023/09/16 10:08:25;;;;;;;7.50;1.40;;;;;;;19.51;75.24;100657.59;109556;1276;256685;-79
2023/09/16 10:10:57;;;;;;;5.50;1.40;;;;;;;19.55;74.76;100658.21;109755;1277;22443;-79
2023/09/16 10:13:28;;;;;;;9.90;2.20;;;;;;;19.56;74.58;100653.05;109644;1273;22839;-79
2023/09/16 10:16:00;;;;;;;6.80;1.50;;;;;;;19.63;74.59;100648.59;109730;1277;22228;-79
2023/09/16 10:18:31;;;;;;;7.80;1.20;;;;;;;19.72;74.30;100645.02;109750;1276;22152;-79
2023/09/16 10:21:02;;;;;;;6.40;1.50;;;;;;;19.83;73.89;100644.02;109751;1284;22234;-79
2023/09/16 10:23:34;;;;;;;5.90;1.20;;;;;;;19.90;73.70;100639.36;109753;1284;22131;-79
2023/09/16 10:26:04;;;;;;;6.30;1.50;;;;;;;19.95;73.53;100635.42;109755;1283;22311;-78
2023/09/16 10:28:42;;;;;;;6.50;1.60;;;;;;;20.02;73.35;100633.31;109758;1277;22232;-80
2023/09/16 10:31:16;;;;;;;5.30;1.10;;;;;;;20.09;72.96;100632.25;109747;1283;22435;-78
2023/09/16 10:33:49;;;;;;;6.90;1.40;;;;;;;20.14;72.37;100633.27;109728;1280;22807;-81
2023/09/16 10:36:21;;;;;;;6.20;1.70;;;;;;;20.21;72.39;100633.45;109760;1283;22158;-80
2023/09/16 10:38:54;;;;;;;9.40;1.40;;;;;;;20.26;72.31;100629.99;109761;1283;22188;-79
2023/09/16 10:41:26;;;;;;;7.10;1.40;;;;;;;20.30;72.22;100629.30;109783;1273;22342;-78
2023/09/16 10:43:59;;;;;;;6.40;1.50;;;;;;;20.37;72.23;100627.61;109770;1284;23142;-77
2023/09/16 10:46:32;;;;;;;8.40;1.40;;;;;;;20.45;72.04;100626.15;109780;1284;23000;-78
2023/09/16 10:49:03;;;;;;;7.30;2.50;;;;;;;20.53;71.89;100624.63;109778;1277;22195;-78
2023/09/16 10:51:42;;;;;;;6.40;1.30;;;;;;;20.64;71.68;100622.20;109734;1284;22283;-80
2023/09/16 10:54:22;;;;;;;6.60;1.70;;;;;;;20.72;71.06;100622.16;109749;1283;23044;-77
2023/09/16 10:56:56;;;;;;;8.80;2.80;;;;;;;20.76;70.54;100618.84;109679;1283;23324;-78
2023/09/16 10:59:32;;;;;;;8.20;1.80;;;;;;;20.81;70.56;100619.31;109745;1277;22163;-78
2023/09/16 11:02:14;;;;;;;7.40;2.00;;;;;;;20.86;70.08;100619.60;109720;1284;22285;-77
2023/09/16 11:04:45;;;;;;;7.00;1.50;;;;;;;20.94;70.15;100615.85;109703;1284;23450;-78
2023/09/16 11:07:16;;;;;;;7.90;1.50;;;;;;;20.99;70.21;100611.02;109739;1284;22186;-78
2023/09/16 11:09:50;;;;;;;8.00;1.50;;;;;;;21.03;69.50;100609.54;109761;1284;22683;-78
2023/09/16 11:12:22;;;;;;;5.60;1.20;;;;;;;21.07;69.38;100610.19;109761;1284;22170;-78
2023/09/16 11:14:53;;;;;;;8.90;1.70;;;;;;;21.12;69.29;100608.80;109750;1280;22211;-78
2023/09/16 11:17:24;;;;;;;6.70;1.50;;;;;;;21.16;68.66;100604.44;109747;1283;22822;-79
2023/09/16 11:20:10;;;;;;;5.80;1.50;;;;;;;21.20;68.61;100607.42;109752;1273;22250;-78
2023/09/16 11:22:47;;;;;;;6.90;1.30;;;;;;;21.23;68.41;100606.06;109740;1284;22437;-79
2023/09/16 11:25:18;;;;;;;5.90;1.40;;;;;;;21.30;68.51;100599.95;109770;1276;22148;-78
2023/09/16 11:27:50;;;;;;;6.20;1.00;;;;;;;21.37;68.47;100601.93;109728;1280;23062;-79
2023/09/16 11:30:22;;;;;;;6.00;1.40;;;;;;;21.43;67.90;100600.85;109743;1284;22342;-78
2023/09/16 11:33:25;;;;;;;7.40;2.10;;;;;;;21.50;67.91;100599.61;109804;1283;22668;-79